sensor_id;sensor_type;location;lat;lon;timestamp;P1;durP1;ratioP1;P2;durP2;ratioP2
13335;SDS011;6737;51.480;11.962;2022-09-14T00:01:09;7.72;;;5.97;;
13335;SDS011;6737;51.480;11.962;2022-09-14T00:03:37;7.80;;;6.20;;
13335;SDS011;6737;51.480;11.962;2022-09-14T00:06:05;7.13;;;6.43;;
13335;SDS011;6737;51.480;11.962;2022-09-14T00:08:35;7.25;;;6.35;;
13335;SDS011;6737;51.480;11.962;2022-09-14T00:11:03;8.18;;;6.28;;
13335;SDS011;6737;51.480;11.962;2022-09-14T00:13:30;7.18;;;6.15;;
13335;SDS011;6737;51.480;11.962;2022-09-14T00:16:01;7.32;;;6.55;;
13335;SDS011;6737;51.480;11.962;2022-09-14T00:18:28;7.65;;;6.45;;
13335;SDS011;6737;51.480;11.962;2022-09-14T00:21:01;9.13;;;6.45;;
13335;SDS011;6737;51.480;11.962;2022-09-14T00:23:28;7.00;;;6.30;;
13335;SDS011;6737;51.480;11.962;2022-09-14T00:25:54;7.03;;;6.20;;
13335;SDS011;6737;51.480;11.962;2022-09-14T00:28:20;8.27;;;5.38;;
13335;SDS011;6737;51.480;11.962;2022-09-14T00:30:46;6.22;;;5.43;;
13335;SDS011;6737;51.480;11.962;2022-09-14T00:33:12;8.25;;;5.75;;
13335;SDS011;6737;51.480;11.962;2022-09-14T00:35:38;6.78;;;5.65;;
13335;SDS011;6737;51.480;11.962;2022-09-14T00:38:04;5.70;;;5.10;;
13335;SDS011;6737;51.480;11.962;2022-09-14T00:40:31;7.13;;;5.50;;
13335;SDS011;6737;51.480;11.962;2022-09-14T00:42:57;7.13;;;5.43;;
13335;SDS011;6737;51.480;11.962;2022-09-14T00:45:23;6.78;;;5.30;;
13335;SDS011;6737;51.480;11.962;2022-09-14T00:47:50;6.68;;;5.25;;
13335;SDS011;6737;51.480;11.962;2022-09-14T00:50:18;8.75;;;5.00;;
13335;SDS011;6737;51.480;11.962;2022-09-14T00:52:45;6.97;;;4.88;;
13335;SDS011;6737;51.480;11.962;2022-09-14T00:55:16;9.00;;;4.38;;
13335;SDS011;6737;51.480;11.962;2022-09-14T00:57:45;5.60;;;4.10;;
13335;SDS011;6737;51.480;11.962;2022-09-14T01:00:16;7.90;;;3.75;;
13335;SDS011;6737;51.480;11.962;2022-09-14T01:02:44;5.18;;;3.60;;
13335;SDS011;6737;51.480;11.962;2022-09-14T01:05:10;8.95;;;3.83;;
13335;SDS011;6737;51.480;11.962;2022-09-14T01:07:49;7.25;;;3.83;;
13335;SDS011;6737;51.480;11.962;2022-09-14T01:10:27;4.57;;;3.17;;
13335;SDS011;6737;51.480;11.962;2022-09-14T01:13:06;6.40;;;3.13;;
13335;SDS011;6737;51.480;11.962;2022-09-14T01:16:01;5.63;;;3.42;;
13335;SDS011;6737;51.480;11.962;2022-09-14T01:18:31;6.35;;;3.10;;
13335;SDS011;6737;51.480;11.962;2022-09-14T01:21:30;4.40;;;2.80;;
13335;SDS011;6737;51.480;11.962;2022-09-14T01:24:00;5.05;;;2.65;;
13335;SDS011;6737;51.480;11.962;2022-09-14T01:32:04;8.20;;;2.60;;
13335;SDS011;6737;51.480;11.962;2022-09-14T01:37:39;8.23;;;2.50;;
13335;SDS011;6737;51.480;11.962;2022-09-14T01:42:37;7.40;;;2.40;;
13335;SDS011;6737;51.480;11.962;2022-09-14T01:45:06;6.93;;;2.40;;
13335;SDS011;6737;51.480;11.962;2022-09-14T01:47:40;5.07;;;2.40;;
13335;SDS011;6737;51.480;11.962;2022-09-14T01:50:44;6.43;;;2.20;;
13335;SDS011;6737;51.480;11.962;2022-09-14T01:53:14;5.05;;;2.20;;
13335;SDS011;6737;51.480;11.962;2022-09-14T01:55:46;7.93;;;2.40;;
13335;SDS011;6737;51.480;11.962;2022-09-14T01:58:15;7.65;;;2.30;;
13335;SDS011;6737;51.480;11.962;2022-09-14T02:00:46;6.70;;;2.30;;
13335;SDS011;6737;51.480;11.962;2022-09-14T02:03:16;5.68;;;2.17;;
13335;SDS011;6737;51.480;11.962;2022-09-14T02:05:54;7.88;;;2.20;;
13335;SDS011;6737;51.480;11.962;2022-09-14T02:08:23;5.90;;;2.10;;
13335;SDS011;6737;51.480;11.962;2022-09-14T02:10:52;6.13;;;2.03;;
13335;SDS011;6737;51.480;11.962;2022-09-14T02:13:18;7.15;;;2.17;;
13335;SDS011;6737;51.480;11.962;2022-09-14T02:15:44;9.20;;;2.42;;
13335;SDS011;6737;51.480;11.962;2022-09-14T02:18:10;6.80;;;2.30;;
13335;SDS011;6737;51.480;11.962;2022-09-14T02:23:05;6.72;;;2.20;;
13335;SDS011;6737;51.480;11.962;2022-09-14T02:25:31;4.53;;;1.85;;
13335;SDS011;6737;51.480;11.962;2022-09-14T02:28:00;5.88;;;2.10;;
13335;SDS011;6737;51.480;11.962;2022-09-14T02:30:27;6.10;;;1.95;;
13335;SDS011;6737;51.480;11.962;2022-09-14T02:35:48;4.63;;;2.22;;
13335;SDS011;6737;51.480;11.962;2022-09-14T02:40:54;4.85;;;2.10;;
13335;SDS011;6737;51.480;11.962;2022-09-14T02:43:49;5.50;;;2.20;;
13335;SDS011;6737;51.480;11.962;2022-09-14T02:49:30;5.38;;;1.92;;
13335;SDS011;6737;51.480;11.962;2022-09-14T02:52:18;5.40;;;2.17;;
13335;SDS011;6737;51.480;11.962;2022-09-14T03:00:31;4.15;;;2.03;;
13335;SDS011;6737;51.480;11.962;2022-09-14T03:03:01;8.70;;;2.15;;
13335;SDS011;6737;51.480;11.962;2022-09-14T03:05:28;4.95;;;2.08;;
13335;SDS011;6737;51.480;11.962;2022-09-14T03:07:54;5.57;;;2.20;;
13335;SDS011;6737;51.480;11.962;2022-09-14T03:10:20;4.00;;;1.95;;
13335;SDS011;6737;51.480;11.962;2022-09-14T03:12:46;7.95;;;2.00;;
13335;SDS011;6737;51.480;11.962;2022-09-14T03:15:12;6.10;;;2.03;;
13335;SDS011;6737;51.480;11.962;2022-09-14T03:17:38;7.15;;;2.20;;
13335;SDS011;6737;51.480;11.962;2022-09-14T03:20:04;4.82;;;2.13;;
13335;SDS011;6737;51.480;11.962;2022-09-14T03:22:31;6.75;;;2.13;;
13335;SDS011;6737;51.480;11.962;2022-09-14T03:24:57;5.38;;;2.00;;
13335;SDS011;6737;51.480;11.962;2022-09-14T03:27:23;7.60;;;2.10;;
13335;SDS011;6737;51.480;11.962;2022-09-14T03:29:49;5.50;;;2.10;;
13335;SDS011;6737;51.480;11.962;2022-09-14T03:32:14;4.55;;;1.90;;
13335;SDS011;6737;51.480;11.962;2022-09-14T03:34:40;8.48;;;2.30;;
13335;SDS011;6737;51.480;11.962;2022-09-14T03:37:06;5.35;;;1.95;;
13335;SDS011;6737;51.480;11.962;2022-09-14T03:39:32;7.00;;;2.13;;
13335;SDS011;6737;51.480;11.962;2022-09-14T03:41:57;7.20;;;2.25;;
13335;SDS011;6737;51.480;11.962;2022-09-14T03:44:23;8.07;;;2.10;;
13335;SDS011;6737;51.480;11.962;2022-09-14T03:46:50;7.05;;;2.00;;
13335;SDS011;6737;51.480;11.962;2022-09-14T03:49:15;6.65;;;1.83;;
13335;SDS011;6737;51.480;11.962;2022-09-14T03:51:41;5.47;;;1.75;;
13335;SDS011;6737;51.480;11.962;2022-09-14T03:54:07;4.65;;;1.80;;
13335;SDS011;6737;51.480;11.962;2022-09-14T03:56:32;7.60;;;1.95;;
13335;SDS011;6737;51.480;11.962;2022-09-14T03:59:13;5.22;;;1.85;;
13335;SDS011;6737;51.480;11.962;2022-09-14T04:01:39;6.53;;;1.70;;
13335;SDS011;6737;51.480;11.962;2022-09-14T04:04:05;5.10;;;1.80;;
13335;SDS011;6737;51.480;11.962;2022-09-14T04:06:30;6.85;;;2.03;;
13335;SDS011;6737;51.480;11.962;2022-09-14T04:08:57;7.65;;;1.80;;
13335;SDS011;6737;51.480;11.962;2022-09-14T04:11:24;4.70;;;1.60;;
13335;SDS011;6737;51.480;11.962;2022-09-14T04:13:50;8.45;;;1.98;;
13335;SDS011;6737;51.480;11.962;2022-09-14T04:16:17;7.60;;;1.92;;
13335;SDS011;6737;51.480;11.962;2022-09-14T04:18:46;8.73;;;2.25;;
13335;SDS011;6737;51.480;11.962;2022-09-14T04:21:14;7.05;;;2.00;;
13335;SDS011;6737;51.480;11.962;2022-09-14T04:23:42;5.47;;;1.70;;
13335;SDS011;6737;51.480;11.962;2022-09-14T04:26:11;7.63;;;2.25;;
13335;SDS011;6737;51.480;11.962;2022-09-14T04:28:39;6.28;;;1.73;;
13335;SDS011;6737;51.480;11.962;2022-09-14T04:31:05;4.00;;;1.83;;
13335;SDS011;6737;51.480;11.962;2022-09-14T04:33:32;9.70;;;2.10;;
13335;SDS011;6737;51.480;11.962;2022-09-14T04:35:59;6.97;;;1.90;;
13335;SDS011;6737;51.480;11.962;2022-09-14T04:38:34;7.07;;;2.00;;
13335;SDS011;6737;51.480;11.962;2022-09-14T04:41:09;4.68;;;1.90;;
13335;SDS011;6737;51.480;11.962;2022-09-14T04:43:36;7.53;;;2.45;;
13335;SDS011;6737;51.480;11.962;2022-09-14T04:46:04;7.78;;;2.10;;
13335;SDS011;6737;51.480;11.962;2022-09-14T04:48:32;6.15;;;2.05;;
13335;SDS011;6737;51.480;11.962;2022-09-14T04:51:02;5.63;;;2.20;;
13335;SDS011;6737;51.480;11.962;2022-09-14T04:53:34;7.00;;;2.08;;
13335;SDS011;6737;51.480;11.962;2022-09-14T04:56:02;9.75;;;2.05;;
13335;SDS011;6737;51.480;11.962;2022-09-14T04:58:30;6.90;;;1.95;;
13335;SDS011;6737;51.480;11.962;2022-09-14T05:01:07;6.90;;;1.73;;
13335;SDS011;6737;51.480;11.962;2022-09-14T05:03:36;7.43;;;2.03;;
13335;SDS011;6737;51.480;11.962;2022-09-14T05:06:03;5.65;;;1.70;;
13335;SDS011;6737;51.480;11.962;2022-09-14T05:08:34;5.00;;;2.03;;
13335;SDS011;6737;51.480;11.962;2022-09-14T05:11:00;9.93;;;2.20;;
13335;SDS011;6737;51.480;11.962;2022-09-14T05:13:27;5.75;;;1.63;;
13335;SDS011;6737;51.480;11.962;2022-09-14T05:15:52;7.80;;;1.97;;
13335;SDS011;6737;51.480;11.962;2022-09-14T05:18:18;8.73;;;1.90;;
13335;SDS011;6737;51.480;11.962;2022-09-14T05:20:44;7.20;;;2.08;;
13335;SDS011;6737;51.480;11.962;2022-09-14T05:23:10;10.48;;;2.10;;
13335;SDS011;6737;51.480;11.962;2022-09-14T05:25:36;6.75;;;2.03;;
13335;SDS011;6737;51.480;11.962;2022-09-14T05:28:02;7.63;;;1.90;;
13335;SDS011;6737;51.480;11.962;2022-09-14T05:30:28;6.15;;;1.95;;
13335;SDS011;6737;51.480;11.962;2022-09-14T05:32:53;6.38;;;1.65;;
13335;SDS011;6737;51.480;11.962;2022-09-14T05:35:19;6.95;;;1.95;;
13335;SDS011;6737;51.480;11.962;2022-09-14T05:37:45;6.50;;;1.63;;
13335;SDS011;6737;51.480;11.962;2022-09-14T05:40:11;3.30;;;1.60;;
13335;SDS011;6737;51.480;11.962;2022-09-14T05:42:36;4.75;;;1.80;;
13335;SDS011;6737;51.480;11.962;2022-09-14T05:45:02;5.80;;;1.65;;
13335;SDS011;6737;51.480;11.962;2022-09-14T05:47:28;5.23;;;1.70;;
13335;SDS011;6737;51.480;11.962;2022-09-14T05:49:55;5.57;;;1.70;;
13335;SDS011;6737;51.480;11.962;2022-09-14T05:52:21;5.80;;;1.63;;
13335;SDS011;6737;51.480;11.962;2022-09-14T05:54:48;8.18;;;2.00;;
13335;SDS011;6737;51.480;11.962;2022-09-14T05:57:14;7.40;;;1.90;;
13335;SDS011;6737;51.480;11.962;2022-09-14T05:59:39;7.45;;;1.98;;
13335;SDS011;6737;51.480;11.962;2022-09-14T06:02:05;9.13;;;1.93;;
13335;SDS011;6737;51.480;11.962;2022-09-14T06:04:31;10.60;;;2.00;;
13335;SDS011;6737;51.480;11.962;2022-09-14T06:06:57;7.20;;;1.85;;
13335;SDS011;6737;51.480;11.962;2022-09-14T06:09:23;7.03;;;1.77;;
13335;SDS011;6737;51.480;11.962;2022-09-14T06:11:48;13.48;;;2.08;;
13335;SDS011;6737;51.480;11.962;2022-09-14T06:14:14;17.55;;;2.63;;
13335;SDS011;6737;51.480;11.962;2022-09-14T06:16:44;9.57;;;1.85;;
13335;SDS011;6737;51.480;11.962;2022-09-14T06:19:10;8.43;;;1.42;;
13335;SDS011;6737;51.480;11.962;2022-09-14T06:21:38;3.83;;;1.60;;
13335;SDS011;6737;51.480;11.962;2022-09-14T06:24:04;5.75;;;1.30;;
13335;SDS011;6737;51.480;11.962;2022-09-14T06:26:30;5.07;;;1.23;;
13335;SDS011;6737;51.480;11.962;2022-09-14T06:28:56;6.18;;;1.58;;
13335;SDS011;6737;51.480;11.962;2022-09-14T06:31:22;10.50;;;1.60;;
13335;SDS011;6737;51.480;11.962;2022-09-14T06:33:49;6.72;;;1.67;;
13335;SDS011;6737;51.480;11.962;2022-09-14T06:36:17;6.90;;;1.70;;
13335;SDS011;6737;51.480;11.962;2022-09-14T06:38:45;4.85;;;1.25;;
13335;SDS011;6737;51.480;11.962;2022-09-14T06:41:13;8.68;;;1.48;;
13335;SDS011;6737;51.480;11.962;2022-09-14T06:43:44;7.50;;;1.33;;
13335;SDS011;6737;51.480;11.962;2022-09-14T06:48:40;7.18;;;1.70;;
13335;SDS011;6737;51.480;11.962;2022-09-14T06:53:54;9.02;;;1.70;;
13335;SDS011;6737;51.480;11.962;2022-09-14T06:56:21;5.45;;;1.55;;
13335;SDS011;6737;51.480;11.962;2022-09-14T06:58:46;7.40;;;2.10;;
13335;SDS011;6737;51.480;11.962;2022-09-14T07:01:14;8.88;;;1.75;;
13335;SDS011;6737;51.480;11.962;2022-09-14T07:03:42;5.35;;;1.70;;
13335;SDS011;6737;51.480;11.962;2022-09-14T07:06:09;7.47;;;1.90;;
13335;SDS011;6737;51.480;11.962;2022-09-14T07:08:38;6.63;;;1.83;;
13335;SDS011;6737;51.480;11.962;2022-09-14T07:11:05;5.88;;;1.90;;
13335;SDS011;6737;51.480;11.962;2022-09-14T07:13:32;9.45;;;1.80;;
13335;SDS011;6737;51.480;11.962;2022-09-14T07:15:58;7.13;;;1.90;;
13335;SDS011;6737;51.480;11.962;2022-09-14T07:18:24;4.10;;;1.88;;
13335;SDS011;6737;51.480;11.962;2022-09-14T07:21:04;5.80;;;1.60;;
13335;SDS011;6737;51.480;11.962;2022-09-14T07:23:35;10.27;;;1.70;;
13335;SDS011;6737;51.480;11.962;2022-09-14T07:26:08;6.45;;;1.60;;
13335;SDS011;6737;51.480;11.962;2022-09-14T07:28:35;8.95;;;1.85;;
13335;SDS011;6737;51.480;11.962;2022-09-14T07:31:02;9.25;;;1.70;;
13335;SDS011;6737;51.480;11.962;2022-09-14T07:33:29;8.20;;;1.70;;
13335;SDS011;6737;51.480;11.962;2022-09-14T07:36:08;6.68;;;1.50;;
13335;SDS011;6737;51.480;11.962;2022-09-14T07:38:35;5.25;;;1.70;;
13335;SDS011;6737;51.480;11.962;2022-09-14T07:41:01;5.65;;;1.27;;
13335;SDS011;6737;51.480;11.962;2022-09-14T07:43:27;7.07;;;1.63;;
13335;SDS011;6737;51.480;11.962;2022-09-14T07:45:54;6.97;;;1.50;;
13335;SDS011;6737;51.480;11.962;2022-09-14T07:48:20;4.85;;;1.52;;
13335;SDS011;6737;51.480;11.962;2022-09-14T07:50:57;6.95;;;1.42;;
13335;SDS011;6737;51.480;11.962;2022-09-14T07:53:24;4.75;;;1.33;;
13335;SDS011;6737;51.480;11.962;2022-09-14T07:55:50;4.60;;;1.40;;
13335;SDS011;6737;51.480;11.962;2022-09-14T07:58:16;5.35;;;1.48;;
13335;SDS011;6737;51.480;11.962;2022-09-14T08:00:42;4.38;;;1.42;;
13335;SDS011;6737;51.480;11.962;2022-09-14T08:03:08;6.78;;;1.20;;
13335;SDS011;6737;51.480;11.962;2022-09-14T08:05:34;3.78;;;1.25;;
13335;SDS011;6737;51.480;11.962;2022-09-14T08:08:00;5.75;;;1.50;;
13335;SDS011;6737;51.480;11.962;2022-09-14T08:10:26;7.50;;;1.38;;
13335;SDS011;6737;51.480;11.962;2022-09-14T08:12:52;5.22;;;1.45;;
13335;SDS011;6737;51.480;11.962;2022-09-14T08:15:19;5.55;;;1.67;;
13335;SDS011;6737;51.480;11.962;2022-09-14T08:17:46;3.10;;;1.20;;
13335;SDS011;6737;51.480;11.962;2022-09-14T08:20:13;4.00;;;1.30;;
13335;SDS011;6737;51.480;11.962;2022-09-14T08:22:41;5.38;;;1.42;;
13335;SDS011;6737;51.480;11.962;2022-09-14T08:25:10;6.05;;;1.75;;
13335;SDS011;6737;51.480;11.962;2022-09-14T08:27:36;8.23;;;1.30;;
13335;SDS011;6737;51.480;11.962;2022-09-14T08:30:04;9.20;;;1.40;;
13335;SDS011;6737;51.480;11.962;2022-09-14T08:32:30;5.13;;;1.40;;
13335;SDS011;6737;51.480;11.962;2022-09-14T08:34:56;8.20;;;1.50;;
13335;SDS011;6737;51.480;11.962;2022-09-14T08:37:22;4.57;;;1.10;;
13335;SDS011;6737;51.480;11.962;2022-09-14T08:39:48;8.73;;;1.48;;
13335;SDS011;6737;51.480;11.962;2022-09-14T08:42:15;10.35;;;1.40;;
13335;SDS011;6737;51.480;11.962;2022-09-14T08:44:50;7.30;;;1.52;;
13335;SDS011;6737;51.480;11.962;2022-09-14T08:47:31;7.45;;;1.42;;
13335;SDS011;6737;51.480;11.962;2022-09-14T08:54:59;4.13;;;1.30;;
13335;SDS011;6737;51.480;11.962;2022-09-14T08:57:42;5.90;;;1.40;;
13335;SDS011;6737;51.480;11.962;2022-09-14T09:00:20;7.55;;;1.50;;
13335;SDS011;6737;51.480;11.962;2022-09-14T09:08:39;6.68;;;1.88;;
13335;SDS011;6737;51.480;11.962;2022-09-14T09:11:23;8.23;;;1.77;;
13335;SDS011;6737;51.480;11.962;2022-09-14T09:13:55;6.38;;;1.60;;
13335;SDS011;6737;51.480;11.962;2022-09-14T09:16:23;5.28;;;1.70;;
13335;SDS011;6737;51.480;11.962;2022-09-14T09:18:56;8.55;;;1.40;;
13335;SDS011;6737;51.480;11.962;2022-09-14T09:21:28;9.18;;;1.80;;
13335;SDS011;6737;51.480;11.962;2022-09-14T09:24:23;5.40;;;1.30;;
13335;SDS011;6737;51.480;11.962;2022-09-14T09:26:51;8.13;;;1.58;;
13335;SDS011;6737;51.480;11.962;2022-09-14T09:29:16;7.65;;;1.63;;
13335;SDS011;6737;51.480;11.962;2022-09-14T09:31:47;5.25;;;1.38;;
13335;SDS011;6737;51.480;11.962;2022-09-14T09:34:16;6.15;;;1.55;;
13335;SDS011;6737;51.480;11.962;2022-09-14T09:36:49;4.50;;;1.63;;
13335;SDS011;6737;51.480;11.962;2022-09-14T09:39:15;5.53;;;1.45;;
13335;SDS011;6737;51.480;11.962;2022-09-14T09:41:58;9.02;;;1.70;;
13335;SDS011;6737;51.480;11.962;2022-09-14T09:44:27;6.50;;;1.30;;
13335;SDS011;6737;51.480;11.962;2022-09-14T09:47:02;5.93;;;1.50;;
13335;SDS011;6737;51.480;11.962;2022-09-14T09:49:50;5.13;;;1.50;;
13335;SDS011;6737;51.480;11.962;2022-09-14T09:52:20;7.72;;;1.48;;
13335;SDS011;6737;51.480;11.962;2022-09-14T09:54:50;5.13;;;1.25;;
13335;SDS011;6737;51.480;11.962;2022-09-14T09:59:52;4.18;;;1.17;;
13335;SDS011;6737;51.480;11.962;2022-09-14T10:02:35;5.82;;;1.50;;
13335;SDS011;6737;51.480;11.962;2022-09-14T10:05:05;4.28;;;1.30;;
13335;SDS011;6737;51.480;11.962;2022-09-14T10:07:53;7.22;;;1.60;;
13335;SDS011;6737;51.480;11.962;2022-09-14T10:10:46;7.20;;;1.70;;
13335;SDS011;6737;51.480;11.962;2022-09-14T10:13:16;9.07;;;1.90;;
13335;SDS011;6737;51.480;11.962;2022-09-14T10:15:52;7.32;;;1.83;;
13335;SDS011;6737;51.480;11.962;2022-09-14T10:18:29;6.60;;;1.45;;
13335;SDS011;6737;51.480;11.962;2022-09-14T10:23:27;6.05;;;1.40;;
13335;SDS011;6737;51.480;11.962;2022-09-14T10:28:48;5.07;;;1.20;;
13335;SDS011;6737;51.480;11.962;2022-09-14T10:33:54;6.88;;;1.60;;
13335;SDS011;6737;51.480;11.962;2022-09-14T10:36:31;8.15;;;1.48;;
13335;SDS011;6737;51.480;11.962;2022-09-14T10:39:14;9.90;;;1.50;;
13335;SDS011;6737;51.480;11.962;2022-09-14T10:44:44;5.93;;;1.52;;
13335;SDS011;6737;51.480;11.962;2022-09-14T10:55:23;5.95;;;1.77;;
13335;SDS011;6737;51.480;11.962;2022-09-14T10:58:21;8.10;;;1.83;;
13335;SDS011;6737;51.480;11.962;2022-09-14T11:03:53;5.50;;;2.10;;
13335;SDS011;6737;51.480;11.962;2022-09-14T11:06:53;7.30;;;2.15;;
13335;SDS011;6737;51.480;11.962;2022-09-14T11:12:41;6.65;;;2.00;;
13335;SDS011;6737;51.480;11.962;2022-09-14T11:29:07;5.30;;;2.30;;
13335;SDS011;6737;51.480;11.962;2022-09-14T11:34:44;7.97;;;2.70;;
13335;SDS011;6737;51.480;11.962;2022-09-14T11:37:19;8.55;;;2.78;;
13335;SDS011;6737;51.480;11.962;2022-09-14T11:40:00;8.57;;;2.83;;
13335;SDS011;6737;51.480;11.962;2022-09-14T11:48:35;7.82;;;2.50;;
13335;SDS011;6737;51.480;11.962;2022-09-14T11:53:42;8.75;;;2.33;;
13335;SDS011;6737;51.480;11.962;2022-09-14T11:58:57;8.02;;;2.53;;
13335;SDS011;6737;51.480;11.962;2022-09-14T12:01:35;9.73;;;2.05;;
13335;SDS011;6737;51.480;11.962;2022-09-14T12:04:06;7.82;;;2.42;;
13335;SDS011;6737;51.480;11.962;2022-09-14T12:11:42;7.70;;;2.13;;
13335;SDS011;6737;51.480;11.962;2022-09-14T12:17:15;7.97;;;2.20;;
13335;SDS011;6737;51.480;11.962;2022-09-14T12:19:44;7.53;;;1.85;;
13335;SDS011;6737;51.480;11.962;2022-09-14T12:27:42;6.80;;;2.00;;
13335;SDS011;6737;51.480;11.962;2022-09-14T12:32:58;8.88;;;2.05;;
13335;SDS011;6737;51.480;11.962;2022-09-14T12:35:34;7.80;;;2.22;;
13335;SDS011;6737;51.480;11.962;2022-09-14T12:43:51;14.90;;;2.55;;
13335;SDS011;6737;51.480;11.962;2022-09-14T12:51:15;5.03;;;1.77;;
13335;SDS011;6737;51.480;11.962;2022-09-14T12:56:39;6.47;;;1.77;;
13335;SDS011;6737;51.480;11.962;2022-09-14T13:04:33;7.65;;;2.10;;
13335;SDS011;6737;51.480;11.962;2022-09-14T13:07:03;9.02;;;2.20;;
13335;SDS011;6737;51.480;11.962;2022-09-14T13:09:31;5.85;;;2.08;;
13335;SDS011;6737;51.480;11.962;2022-09-14T13:12:02;7.03;;;2.13;;
13335;SDS011;6737;51.480;11.962;2022-09-14T13:14:31;5.93;;;1.90;;
13335;SDS011;6737;51.480;11.962;2022-09-14T13:17:03;5.65;;;1.80;;
13335;SDS011;6737;51.480;11.962;2022-09-14T13:19:34;4.60;;;1.77;;
13335;SDS011;6737;51.480;11.962;2022-09-14T13:22:01;5.93;;;1.80;;
13335;SDS011;6737;51.480;11.962;2022-09-14T13:24:34;5.38;;;2.30;;
13335;SDS011;6737;51.480;11.962;2022-09-14T13:29:47;6.75;;;2.05;;
13335;SDS011;6737;51.480;11.962;2022-09-14T13:32:30;5.88;;;1.80;;
13335;SDS011;6737;51.480;11.962;2022-09-14T13:34:58;5.95;;;1.90;;
13335;SDS011;6737;51.480;11.962;2022-09-14T13:37:25;7.28;;;2.20;;
13335;SDS011;6737;51.480;11.962;2022-09-14T13:39:52;8.95;;;2.25;;
13335;SDS011;6737;51.480;11.962;2022-09-14T13:42:20;7.70;;;2.00;;
13335;SDS011;6737;51.480;11.962;2022-09-14T13:44:46;8.25;;;2.70;;
13335;SDS011;6737;51.480;11.962;2022-09-14T13:47:15;8.70;;;2.70;;
13335;SDS011;6737;51.480;11.962;2022-09-14T13:49:46;7.40;;;2.55;;
13335;SDS011;6737;51.480;11.962;2022-09-14T13:52:18;6.53;;;2.40;;
13335;SDS011;6737;51.480;11.962;2022-09-14T13:54:49;5.72;;;2.15;;
13335;SDS011;6737;51.480;11.962;2022-09-14T13:57:20;6.97;;;2.45;;
13335;SDS011;6737;51.480;11.962;2022-09-14T14:05:27;9.27;;;2.58;;
13335;SDS011;6737;51.480;11.962;2022-09-14T14:07:56;8.77;;;2.47;;
13335;SDS011;6737;51.480;11.962;2022-09-14T14:10:29;6.53;;;2.70;;
13335;SDS011;6737;51.480;11.962;2022-09-14T14:13:00;9.40;;;2.60;;
13335;SDS011;6737;51.480;11.962;2022-09-14T14:15:30;6.50;;;2.33;;
13335;SDS011;6737;51.480;11.962;2022-09-14T14:17:59;7.78;;;2.40;;
13335;SDS011;6737;51.480;11.962;2022-09-14T14:20:45;6.20;;;2.63;;
13335;SDS011;6737;51.480;11.962;2022-09-14T14:25:49;8.68;;;2.55;;
13335;SDS011;6737;51.480;11.962;2022-09-14T14:28:25;9.10;;;2.50;;
13335;SDS011;6737;51.480;11.962;2022-09-14T14:30:52;9.00;;;2.72;;
13335;SDS011;6737;51.480;11.962;2022-09-14T14:33:20;8.60;;;2.53;;
13335;SDS011;6737;51.480;11.962;2022-09-14T14:35:47;9.70;;;2.50;;
13335;SDS011;6737;51.480;11.962;2022-09-14T14:38:16;11.20;;;2.80;;
13335;SDS011;6737;51.480;11.962;2022-09-14T14:40:42;8.10;;;2.45;;
13335;SDS011;6737;51.480;11.962;2022-09-14T14:43:16;9.43;;;2.70;;
13335;SDS011;6737;51.480;11.962;2022-09-14T14:45:50;8.98;;;2.38;;
13335;SDS011;6737;51.480;11.962;2022-09-14T14:48:20;8.25;;;2.80;;
13335;SDS011;6737;51.480;11.962;2022-09-14T14:50:45;7.88;;;2.70;;
13335;SDS011;6737;51.480;11.962;2022-09-14T14:53:12;6.07;;;2.83;;
13335;SDS011;6737;51.480;11.962;2022-09-14T14:55:38;8.55;;;3.05;;
13335;SDS011;6737;51.480;11.962;2022-09-14T14:58:05;9.00;;;3.00;;
13335;SDS011;6737;51.480;11.962;2022-09-14T15:00:35;7.75;;;3.30;;
13335;SDS011;6737;51.480;11.962;2022-09-14T15:03:02;9.35;;;3.40;;
13335;SDS011;6737;51.480;11.962;2022-09-14T15:05:28;8.43;;;3.13;;
13335;SDS011;6737;51.480;11.962;2022-09-14T15:07:55;9.57;;;3.63;;
13335;SDS011;6737;51.480;11.962;2022-09-14T15:10:22;10.57;;;3.80;;
13335;SDS011;6737;51.480;11.962;2022-09-14T15:12:49;9.32;;;3.50;;
13335;SDS011;6737;51.480;11.962;2022-09-14T15:15:17;6.72;;;3.30;;
13335;SDS011;6737;51.480;11.962;2022-09-14T15:17:45;6.97;;;3.25;;
13335;SDS011;6737;51.480;11.962;2022-09-14T15:20:11;12.52;;;3.60;;
13335;SDS011;6737;51.480;11.962;2022-09-14T15:22:37;8.45;;;3.42;;
13335;SDS011;6737;51.480;11.962;2022-09-14T15:25:07;9.38;;;3.70;;
13335;SDS011;6737;51.480;11.962;2022-09-14T15:27:34;8.50;;;3.30;;
13335;SDS011;6737;51.480;11.962;2022-09-14T15:30:01;7.45;;;3.88;;
13335;SDS011;6737;51.480;11.962;2022-09-14T15:32:27;7.57;;;3.70;;
13335;SDS011;6737;51.480;11.962;2022-09-14T15:34:53;8.02;;;3.53;;
13335;SDS011;6737;51.480;11.962;2022-09-14T15:37:19;9.18;;;3.80;;
13335;SDS011;6737;51.480;11.962;2022-09-14T15:39:45;6.80;;;3.57;;
13335;SDS011;6737;51.480;11.962;2022-09-14T15:42:12;8.27;;;3.72;;
13335;SDS011;6737;51.480;11.962;2022-09-14T15:44:38;6.47;;;3.60;;
13335;SDS011;6737;51.480;11.962;2022-09-14T15:47:04;5.68;;;3.50;;
13335;SDS011;6737;51.480;11.962;2022-09-14T15:49:29;7.50;;;3.50;;
13335;SDS011;6737;51.480;11.962;2022-09-14T15:51:56;7.43;;;3.70;;
13335;SDS011;6737;51.480;11.962;2022-09-14T15:54:23;5.95;;;3.42;;
13335;SDS011;6737;51.480;11.962;2022-09-14T15:56:54;8.13;;;3.47;;
13335;SDS011;6737;51.480;11.962;2022-09-14T15:59:23;6.72;;;3.03;;
13335;SDS011;6737;51.480;11.962;2022-09-14T16:01:50;8.95;;;3.08;;
13335;SDS011;6737;51.480;11.962;2022-09-14T16:04:16;10.48;;;3.60;;
13335;SDS011;6737;51.480;11.962;2022-09-14T16:06:43;8.18;;;3.50;;
13335;SDS011;6737;51.480;11.962;2022-09-14T16:09:09;9.43;;;3.20;;
13335;SDS011;6737;51.480;11.962;2022-09-14T16:11:37;12.52;;;3.20;;
13335;SDS011;6737;51.480;11.962;2022-09-14T16:14:04;9.25;;;3.10;;
13335;SDS011;6737;51.480;11.962;2022-09-14T16:16:32;7.65;;;3.15;;
13335;SDS011;6737;51.480;11.962;2022-09-14T16:19:09;7.60;;;2.90;;
13335;SDS011;6737;51.480;11.962;2022-09-14T16:21:37;7.00;;;2.60;;
13335;SDS011;6737;51.480;11.962;2022-09-14T16:24:04;10.15;;;3.10;;
13335;SDS011;6737;51.480;11.962;2022-09-14T16:26:33;10.38;;;3.10;;
13335;SDS011;6737;51.480;11.962;2022-09-14T16:29:00;8.25;;;3.30;;
13335;SDS011;6737;51.480;11.962;2022-09-14T16:31:27;8.13;;;3.28;;
13335;SDS011;6737;51.480;11.962;2022-09-14T16:33:56;6.32;;;3.22;;
13335;SDS011;6737;51.480;11.962;2022-09-14T16:36:25;5.65;;;3.17;;
13335;SDS011;6737;51.480;11.962;2022-09-14T16:38:54;6.10;;;3.10;;
13335;SDS011;6737;51.480;11.962;2022-09-14T16:41:21;7.60;;;3.20;;
13335;SDS011;6737;51.480;11.962;2022-09-14T16:43:52;10.07;;;3.60;;
13335;SDS011;6737;51.480;11.962;2022-09-14T16:46:22;8.25;;;3.40;;
13335;SDS011;6737;51.480;11.962;2022-09-14T16:48:49;11.05;;;3.35;;
13335;SDS011;6737;51.480;11.962;2022-09-14T16:51:16;7.60;;;3.17;;
13335;SDS011;6737;51.480;11.962;2022-09-14T16:53:43;11.87;;;3.30;;
13335;SDS011;6737;51.480;11.962;2022-09-14T16:56:13;8.50;;;3.43;;
13335;SDS011;6737;51.480;11.962;2022-09-14T16:58:44;7.88;;;3.28;;
13335;SDS011;6737;51.480;11.962;2022-09-14T17:03:37;10.97;;;4.00;;
13335;SDS011;6737;51.480;11.962;2022-09-14T17:06:05;8.80;;;4.03;;
13335;SDS011;6737;51.480;11.962;2022-09-14T17:08:34;13.20;;;4.22;;
13335;SDS011;6737;51.480;11.962;2022-09-14T17:11:01;9.83;;;4.27;;
13335;SDS011;6737;51.480;11.962;2022-09-14T17:13:28;8.50;;;4.10;;
13335;SDS011;6737;51.480;11.962;2022-09-14T17:15:59;9.50;;;4.22;;
13335;SDS011;6737;51.480;11.962;2022-09-14T17:18:29;8.38;;;4.38;;
13335;SDS011;6737;51.480;11.962;2022-09-14T17:20:56;10.27;;;4.23;;
13335;SDS011;6737;51.480;11.962;2022-09-14T17:23:24;10.20;;;4.20;;
13335;SDS011;6737;51.480;11.962;2022-09-14T17:25:51;11.50;;;4.03;;
13335;SDS011;6737;51.480;11.962;2022-09-14T17:28:21;10.10;;;3.88;;
13335;SDS011;6737;51.480;11.962;2022-09-14T17:30:52;9.83;;;4.10;;